Time;durP1;ratioP1;P1;durP2;ratioP2;P2;SDS_P1;SDS_P2;PMS_P1;PMS_P2;Temp;Humidity;BMP_temperature;BMP_pressure;BME280_temperature;BME280_humidity;BME280_pressure;Samples;Min_cycle;Max_cycle;Signal;HPM_P1;HPM_P2
2022/05/12 00:02:21;;;;;;;;;4.33;3.00;;;;;;;;4937147;28;45767;-80
2022/05/12 00:04:46;;;;;;;;;2.33;2.33;;;;;;;;4938047;28;45726;-82
2022/05/12 00:07:12;;;;;;;;;6.00;1.00;;;;;;;;4937302;28;45937;-81
2022/05/12 00:09:37;;;;;;;;;4.67;1.00;;;;;;;;4936290;28;47323;-81
2022/05/12 00:12:03;;;;;;;;;1.00;1.00;;;;;;;;4932118;28;45366;-82
2022/05/12 00:14:28;;;;;;;;;2.00;2.00;;;;;;;;4929189;28;45390;-83
2022/05/12 00:16:56;;;;;;;;;3.33;3.33;;;;;;;;4940485;28;45391;-80
2022/05/12 00:19:27;;;;;;;;;3.00;2.00;;;;;;;;4939449;28;46447;-81
2022/05/12 00:21:53;;;;;;;;;0.33;0.33;;;;;;;;4937337;28;46011;-82
2022/05/12 00:24:19;;;;;;;;;2.67;2.00;;;;;;;;4922945;28;45432;-80
2022/05/12 00:26:44;;;;;;;;;6.33;2.33;;;;;;;;4937731;28;45578;-81
2022/05/12 00:29:09;;;;;;;;;3.00;2.67;;;;;;;;4919590;28;47162;-80
2022/05/12 00:31:37;;;;;;;;;3.00;3.00;;;;;;;;4935998;28;45461;-79
2022/05/12 00:34:03;;;;;;;;;5.67;4.00;;;;;;;;4926952;28;45860;-78
2022/05/12 00:36:29;;;;;;;;;4.67;2.00;;;;;;;;4934591;28;45807;-80
2022/05/12 00:38:55;;;;;;;;;7.00;4.33;;;;;;;;4920024;28;45817;-80
2022/05/12 00:41:20;;;;;;;;;2.67;2.67;;;;;;;;4903299;28;45602;-79
2022/05/12 00:43:50;;;;;;;;;4.67;3.00;;;;;;;;4920691;28;45473;-79
2022/05/12 00:46:17;;;;;;;;;6.00;3.00;;;;;;;;4902059;28;46188;-79
2022/05/12 00:48:43;;;;;;;;;2.00;2.00;;;;;;;;4920671;28;45792;-79
2022/05/12 00:51:10;;;;;;;;;3.00;3.00;;;;;;;;4901779;28;45831;-81
2022/05/12 00:53:37;;;;;;;;;3.67;3.00;;;;;;;;4913475;28;45415;-81
2022/05/12 00:56:04;;;;;;;;;5.33;2.67;;;;;;;;4936734;28;45648;-79
2022/05/12 00:58:31;;;;;;;;;7.00;5.00;;;;;;;;4921678;28;47269;-79
2022/05/12 01:00:56;;;;;;;;;5.33;4.33;;;;;;;;4931554;28;45372;-80
2022/05/12 01:03:26;;;;;;;;;6.00;5.67;;;;;;;;4949755;28;45231;-80
2022/05/12 01:05:52;;;;;;;;;1.00;1.00;;;;;;;;4947389;28;46544;-81
2022/05/12 01:08:19;;;;;;;;;6.00;3.00;;;;;;;;4939515;28;45983;-80
2022/05/12 01:10:47;;;;;;;;;7.00;3.33;;;;;;;;4934898;28;45328;-81
2022/05/12 01:13:12;;;;;;;;;5.00;3.33;;;;;;;;4935685;28;45524;-81
2022/05/12 01:15:38;;;;;;;;;7.00;4.33;;;;;;;;4902667;28;45712;-79
2022/05/12 01:18:10;;;;;;;;;1.67;1.67;;;;;;;;4919547;28;45619;-79
2022/05/12 01:20:36;;;;;;;;;7.67;3.33;;;;;;;;4918359;28;45546;-80
2022/05/12 01:23:05;;;;;;;;;5.33;5.00;;;;;;;;4919605;28;45620;-80
2022/05/12 01:25:30;;;;;;;;;3.00;3.00;;;;;;;;4955582;28;46014;-78
2022/05/12 01:27:56;;;;;;;;;3.00;3.00;;;;;;;;4957599;28;47280;-79
2022/05/12 01:30:22;;;;;;;;;8.33;4.33;;;;;;;;4956595;28;45487;-79
2022/05/12 01:32:48;;;;;;;;;7.00;4.00;;;;;;;;4934558;28;45900;-80
2022/05/12 01:35:19;;;;;;;;;6.33;6.00;;;;;;;;4904845;28;45542;-79
2022/05/12 01:37:46;;;;;;;;;2.67;2.67;;;;;;;;4936193;28;45870;-80
2022/05/12 01:40:13;;;;;;;;;6.67;5.33;;;;;;;;4939996;28;45494;-82
2022/05/12 01:42:39;;;;;;;;;5.33;4.33;;;;;;;;4924128;28;45475;-79
2022/05/12 01:45:06;;;;;;;;;7.33;3.67;;;;;;;;4941310;28;45413;-81
2022/05/12 01:47:32;;;;;;;;;4.67;4.67;;;;;;;;4939590;28;45497;-80
2022/05/12 01:49:57;;;;;;;;;5.33;4.00;;;;;;;;4907862;28;45506;-79
2022/05/12 01:52:22;;;;;;;;;4.33;4.33;;;;;;;;4914137;28;45374;-79
2022/05/12 01:54:47;;;;;;;;;6.00;3.67;;;;;;;;4958406;28;45722;-82
2022/05/12 01:57:13;;;;;;;;;4.00;2.00;;;;;;;;4957976;28;45631;-80
2022/05/12 01:59:38;;;;;;;;;3.33;2.00;;;;;;;;4943168;28;45356;-80
2022/05/12 02:02:03;;;;;;;;;6.00;2.67;;;;;;;;4936758;28;45410;-79
2022/05/12 02:04:29;;;;;;;;;3.00;3.00;;;;;;;;4937745;28;45450;-80
2022/05/12 02:06:54;;;;;;;;;6.67;3.00;;;;;;;;4921206;28;47051;-79
2022/05/12 02:09:19;;;;;;;;;2.00;1.00;;;;;;;;4938031;28;45762;-79
2022/05/12 02:11:45;;;;;;;;;2.00;1.67;;;;;;;;4939021;28;45717;-79
2022/05/12 02:14:10;;;;;;;;;1.33;1.33;;;;;;;;4938849;28;45752;-80
2022/05/12 02:16:35;;;;;;;;;2.33;2.33;;;;;;;;4939200;28;46579;-80
2022/05/12 02:19:02;;;;;;;;;2.00;2.00;;;;;;;;4939479;28;45461;-78
2022/05/12 02:21:27;;;;;;;;;3.00;2.00;;;;;;;;4939299;28;45800;-78
2022/05/12 02:23:53;;;;;;;;;2.00;2.00;;;;;;;;4929831;28;45630;-78
2022/05/12 02:26:18;;;;;;;;;1.33;1.33;;;;;;;;4923414;28;45391;-79
2022/05/12 02:28:43;;;;;;;;;1.33;1.00;;;;;;;;4923070;28;46140;-80
2022/05/12 02:31:18;;;;;;;;;1.00;1.00;;;;;;;;4953322;28;45721;-80
2022/05/12 02:33:55;;;;;;;;;1.00;1.00;;;;;;;;4970000;28;45675;-80
2022/05/12 02:36:21;;;;;;;;;3.00;2.00;;;;;;;;4940649;28;46929;-79
2022/05/12 02:39:11;;;;;;;;;2.00;2.00;;;;;;;;4930412;28;45205;-78
2022/05/12 02:41:37;;;;;;;;;0.67;0.67;;;;;;;;4890510;28;45652;-80
2022/05/12 02:44:02;;;;;;;;;1.00;1.00;;;;;;;;4937195;28;45542;-81
2022/05/12 02:46:27;;;;;;;;;0.00;0.00;;;;;;;;4940297;28;45459;-78
2022/05/12 02:48:54;;;;;;;;;2.33;1.33;;;;;;;;4943103;28;45446;-81
2022/05/12 02:51:19;;;;;;;;;3.33;2.00;;;;;;;;4936321;28;45540;-80
2022/05/12 02:53:44;;;;;;;;;0.67;0.67;;;;;;;;4923816;28;45423;-78
2022/05/12 02:56:10;;;;;;;;;2.00;2.00;;;;;;;;4925732;28;45712;-79
2022/05/12 02:58:36;;;;;;;;;1.33;1.33;;;;;;;;4922466;28;45686;-81
2022/05/12 03:01:02;;;;;;;;;1.00;1.00;;;;;;;;4927665;28;45469;-79
2022/05/12 03:03:28;;;;;;;;;0.67;0.67;;;;;;;;4937692;28;45690;-79
2022/05/12 03:05:54;;;;;;;;;2.67;1.67;;;;;;;;4919212;28;48475;-79
2022/05/12 03:08:19;;;;;;;;;2.00;1.67;;;;;;;;4922343;28;45511;-79
2022/05/12 03:10:45;;;;;;;;;3.33;2.67;;;;;;;;4936823;28;45679;-78
2022/05/12 03:13:10;;;;;;;;;0.67;0.33;;;;;;;;4952342;28;45699;-80
2022/05/12 03:15:36;;;;;;;;;0.67;0.67;;;;;;;;4936202;28;45465;-79
2022/05/12 03:18:01;;;;;;;;;2.00;2.00;;;;;;;;4937100;28;45441;-80
2022/05/12 03:20:29;;;;;;;;;3.33;1.33;;;;;;;;4928803;28;45465;-80
2022/05/12 03:22:54;;;;;;;;;3.00;1.00;;;;;;;;4921387;28;46294;-80
2022/05/12 03:25:20;;;;;;;;;1.00;1.00;;;;;;;;4921191;28;47073;-79
2022/05/12 03:27:46;;;;;;;;;2.33;2.00;;;;;;;;4940762;28;45800;-79
2022/05/12 03:30:13;;;;;;;;;2.00;2.00;;;;;;;;4941427;28;45364;-79
2022/05/12 03:32:38;;;;;;;;;2.00;1.00;;;;;;;;4942084;28;45429;-80
2022/05/12 03:35:04;;;;;;;;;3.00;1.00;;;;;;;;4941837;28;47115;-79
2022/05/12 03:37:29;;;;;;;;;1.33;1.33;;;;;;;;4947218;28;44882;-81
2022/05/12 03:39:54;;;;;;;;;1.67;1.67;;;;;;;;4936553;28;44814;-77
2022/05/12 03:42:20;;;;;;;;;3.00;2.00;;;;;;;;4952670;28;45263;-79
2022/05/12 03:44:53;;;;;;;;;0.00;0.00;;;;;;;;4947392;28;46942;-78
2022/05/12 03:47:24;;;;;;;;;1.00;1.00;;;;;;;;4928854;28;45445;-79
2022/05/12 03:49:52;;;;;;;;;4.00;1.00;;;;;;;;4926615;28;45628;-80
2022/05/12 03:52:18;;;;;;;;;3.67;1.00;;;;;;;;4920572;28;46034;-80
2022/05/12 03:54:43;;;;;;;;;2.00;2.00;;;;;;;;4928930;28;46313;-80
2022/05/12 03:57:09;;;;;;;;;3.00;1.00;;;;;;;;4934579;28;45619;-80
2022/05/12 03:59:35;;;;;;;;;1.67;1.67;;;;;;;;4924056;28;45807;-80
2022/05/12 04:02:00;;;;;;;;;3.00;1.33;;;;;;;;4927813;28;46457;-80
2022/05/12 04:04:26;;;;;;;;;1.00;1.00;;;;;;;;4937247;28;45374;-79
2022/05/12 04:06:51;;;;;;;;;3.67;3.00;;;;;;;;4918372;28;45783;-81
2022/05/12 04:09:16;;;;;;;;;1.00;1.00;;;;;;;;4940751;28;45677;-78
2022/05/12 04:11:42;;;;;;;;;3.00;1.33;;;;;;;;4942305;28;45413;-80
2022/05/12 04:14:07;;;;;;;;;2.00;1.00;;;;;;;;4927106;28;47067;-79
2022/05/12 04:16:33;;;;;;;;;2.00;2.00;;;;;;;;4925100;28;45482;-78
2022/05/12 04:18:58;;;;;;;;;1.33;1.00;;;;;;;;4932503;28;45449;-80
2022/05/12 04:21:24;;;;;;;;;2.00;1.00;;;;;;;;4931058;28;45362;-80
2022/05/12 04:23:50;;;;;;;;;6.00;2.67;;;;;;;;4943832;28;46069;-79
2022/05/12 04:26:15;;;;;;;;;3.00;1.33;;;;;;;;4931904;28;45475;-80
2022/05/12 04:28:40;;;;;;;;;3.00;3.00;;;;;;;;4923942;28;45431;-79
2022/05/12 04:31:11;;;;;;;;;2.33;1.33;;;;;;;;4923444;28;45980;-81
2022/05/12 04:36:21;;;;;;;;;2.67;2.00;;;;;;;;4929165;28;45731;-80
2022/05/12 04:38:46;;;;;;;;;3.67;3.67;;;;;;;;4919454;28;46665;-79
2022/05/12 04:41:11;;;;;;;;;15.67;13.67;;;;;;;;4927894;28;45485;-79
2022/05/12 04:43:37;;;;;;;;;13.67;8.33;;;;;;;;4933016;28;45810;-79
2022/05/12 04:46:03;;;;;;;;;8.33;4.67;;;;;;;;4919572;28;45460;-80
2022/05/12 04:48:31;;;;;;;;;9.50;6.00;;;;;;;;4917703;28;45392;-79
2022/05/12 04:50:57;;;;;;;;;5.67;4.00;;;;;;;;4908428;28;45723;-79
2022/05/12 04:53:23;;;;;;;;;7.33;6.33;;;;;;;;4937226;28;47182;-79
2022/05/12 04:55:48;;;;;;;;;3.33;3.33;;;;;;;;4939807;28;45836;-79
2022/05/12 04:58:13;;;;;;;;;4.00;2.33;;;;;;;;4926594;28;45522;-80
2022/05/12 05:00:40;;;;;;;;;8.00;3.33;;;;;;;;4919464;28;45516;-79
2022/05/12 05:03:06;;;;;;;;;6.33;4.00;;;;;;;;4921659;28;45884;-79
2022/05/12 05:05:32;;;;;;;;;5.67;3.33;;;;;;;;4928498;28;45459;-81
2022/05/12 05:07:57;;;;;;;;;6.00;6.00;;;;;;;;4928417;28;45811;-79
2022/05/12 05:10:22;;;;;;;;;6.33;5.33;;;;;;;;4914033;28;47386;-80
2022/05/12 05:12:48;;;;;;;;;5.67;4.67;;;;;;;;4924764;28;46957;-80
2022/05/12 05:15:14;;;;;;;;;5.33;3.00;;;;;;;;4920660;28;45419;-80
2022/05/12 05:17:41;;;;;;;;;3.00;3.00;;;;;;;;4921939;28;45629;-79
2022/05/12 05:20:08;;;;;;;;;2.00;2.00;;;;;;;;4920772;28;45529;-80
2022/05/12 05:22:34;;;;;;;;;3.00;2.00;;;;;;;;4929905;28;45417;-80
2022/05/12 05:24:59;;;;;;;;;2.67;2.67;;;;;;;;4911595;28;45578;-81
2022/05/12 05:27:25;;;;;;;;;2.50;2.00;;;;;;;;4922207;28;45926;-80
2022/05/12 05:29:51;;;;;;;;;4.75;2.00;;;;;;;;4927976;28;45706;-81
2022/05/12 05:32:16;;;;;;;;;2.25;2.25;;;;;;;;4926776;28;45630;-79
2022/05/12 05:34:42;;;;;;;;;2.75;1.50;;;;;;;;4916203;28;45407;-78
2022/05/12 05:37:11;;;;;;;;;1.50;1.00;;;;;;;;4898860;28;45497;-81
2022/05/12 05:39:36;;;;;;;;;2.25;2.25;;;;;;;;5395473;23;46702;-81
2022/05/12 05:42:09;;;;;;;;;5.00;2.00;;;;;;;;4952802;28;46115;-81
2022/05/12 05:44:34;;;;;;;;;2.00;1.50;;;;;;;;4973687;28;46441;-80
2022/05/12 05:47:00;;;;;;;;;1.00;1.00;;;;;;;;4979719;28;45387;-79
2022/05/12 05:49:27;;;;;;;;;4.00;2.75;;;;;;;;4986556;28;44828;-81
2022/05/12 05:54:36;;;;;;;;;1.50;1.00;;;;;;;;4964859;28;45415;-80
2022/05/12 05:57:03;;;;;;;;;3.00;2.25;;;;;;;;4971006;28;45547;-78
2022/05/12 05:59:28;;;;;;;;;2.50;1.50;;;;;;;;4966095;28;46034;-78
2022/05/12 06:01:53;;;;;;;;;1.25;1.25;;;;;;;;4961212;28;46240;-77
2022/05/12 06:04:19;;;;;;;;;3.00;2.75;;;;;;;;4987796;28;45888;-79
2022/05/12 06:06:44;;;;;;;;;2.00;2.00;;;;;;;;4993442;28;45619;-79
2022/05/12 06:09:12;;;;;;;;;2.00;2.00;;;;;;;;4964878;28;45853;-78
2022/05/12 06:11:37;;;;;;;;;2.75;2.00;;;;;;;;4943610;28;46749;-80
2022/05/12 06:14:05;;;;;;;;;5.50;3.50;;;;;;;;4967973;28;45387;-81
2022/05/12 06:16:31;;;;;;;;;2.25;2.00;;;;;;;;4954138;28;45178;-81
2022/05/12 06:19:04;;;;;;;;;1.75;1.25;;;;;;;;4965857;28;45576;-79
2022/05/12 06:21:29;;;;;;;;;2.75;1.25;;;;;;;;4950955;28;47126;-81
2022/05/12 06:23:54;;;;;;;;;3.25;3.25;;;;;;;;4964494;28;45892;-82
2022/05/12 06:26:20;;;;;;;;;2.00;2.00;;;;;;;;4977691;28;45507;-77
2022/05/12 06:28:46;;;;;;;;;3.25;3.25;;;;;;;;4975721;28;45885;-78
2022/05/12 06:31:17;;;;;;;;;2.25;1.50;;;;;;;;4971687;28;46031;-75
2022/05/12 06:33:43;;;;;;;;;3.50;1.00;;;;;;;;4971039;28;45513;-81
2022/05/12 06:36:12;;;;;;;;;2.00;1.25;;;;;;;;4968482;28;45556;-80
2022/05/12 06:38:40;;;;;;;;;4.00;1.50;;;;;;;;4965457;28;45389;-80
2022/05/12 06:41:06;;;;;;;;;2.25;1.25;;;;;;;;4948098;28;47165;-85
2022/05/12 06:43:32;;;;;;;;;1.75;1.50;;;;;;;;4945887;28;45493;-80
2022/05/12 06:45:57;;;;;;;;;3.50;1.00;;;;;;;;4942906;28;45436;-80
2022/05/12 06:48:23;;;;;;;;;2.75;1.00;;;;;;;;4948005;28;47100;-79
2022/05/12 06:50:49;;;;;;;;;3.75;2.75;;;;;;;;4942387;28;48005;-80
2022/05/12 06:53:14;;;;;;;;;1.50;1.00;;;;;;;;4948805;28;45854;-79
2022/05/12 06:55:40;;;;;;;;;2.25;1.00;;;;;;;;4945561;28;45541;-80
2022/05/12 06:58:05;;;;;;;;;5.67;4.33;;;;;;;;4956516;28;45798;-79
2022/05/12 07:00:30;;;;;;;;;1.25;1.25;;;;;;;;4966179;28;46689;-76
2022/05/12 07:02:58;;;;;;;;;1.75;0.75;;;;;;;;4956492;28;45990;-81
2022/05/12 07:05:26;;;;;;;;;3.25;1.00;;;;;;;;4967115;28;45547;-79
2022/05/12 07:07:53;;;;;;;;;1.25;0.25;;;;;;;;4942978;28;46889;-78
2022/05/12 07:10:19;;;;;;;;;2.50;1.75;;;;;;;;4946778;28;48130;-78
2022/05/12 07:12:44;;;;;;;;;1.00;0.75;;;;;;;;4940193;28;46187;-79
2022/05/12 07:15:10;;;;;;;;;1.00;1.00;;;;;;;;4939237;28;45517;-80
2022/05/12 07:17:38;;;;;;;;;4.25;1.75;;;;;;;;4958850;28;46463;-79
2022/05/12 07:28:16;;;;;;;;;0.50;0.50;;;;;;;;4966665;28;45448;-78
2022/05/12 07:31:00;;;;;;;;;0.25;0.25;;;;;;;;4949946;28;45585;-78
2022/05/12 07:33:26;;;;;;;;;1.00;1.00;;;;;;;;4969665;28;46006;-75
2022/05/12 07:35:52;;;;;;;;;2.00;2.00;;;;;;;;4940511;28;45729;-76
2022/05/12 07:38:17;;;;;;;;;2.00;1.00;;;;;;;;4956823;28;45654;-76
2022/05/12 07:40:42;;;;;;;;;2.00;0.25;;;;;;;;4937254;28;47339;-80
2022/05/12 07:43:07;;;;;;;;;0.75;0.75;;;;;;;;4957970;28;46049;-78
2022/05/12 07:45:33;;;;;;;;;1.67;1.67;;;;;;;;4955852;28;45791;-79
2022/05/12 07:48:02;;;;;;;;;0.00;0.00;;;;;;;;4946104;28;46541;-79
2022/05/12 07:50:28;;;;;;;;;0.67;0.33;;;;;;;;4962120;28;46664;-78
2022/05/12 07:52:54;;;;;;;;;3.67;2.00;;;;;;;;4944873;28;46154;-77
2022/05/12 07:55:19;;;;;;;;;2.00;0.67;;;;;;;;4962815;28;45801;-77
2022/05/12 07:57:44;;;;;;;;;2.67;1.33;;;;;;;;4946957;28;45995;-77
2022/05/12 08:00:10;;;;;;;;;1.00;1.00;;;;;;;;4941573;28;47325;-78
2022/05/12 08:02:35;;;;;;;;;1.75;0.25;;;;;;;;4951568;28;45335;-79
2022/05/12 08:05:01;;;;;;;;;0.33;0.33;;;;;;;;4965026;28;45616;-78
2022/05/12 08:07:28;;;;;;;;;0.50;0.50;;;;;;;;4940251;28;46364;-77
2022/05/12 08:09:53;;;;;;;;;0.00;0.00;;;;;;;;4957213;28;45287;-78
2022/05/12 08:12:18;;;;;;;;;1.00;0.00;;;;;;;;4941793;28;45801;-78
2022/05/12 08:14:44;;;;;;;;;0.67;0.67;;;;;;;;4942504;28;45913;-78
2022/05/12 08:17:09;;;;;;;;;0.00;0.00;;;;;;;;4940617;28;45977;-76
2022/05/12 08:19:35;;;;;;;;;0.00;0.00;;;;;;;;4957084;28;45572;-78
2022/05/12 08:22:00;;;;;;;;;3.33;3.00;;;;;;;;4939176;28;45699;-78
2022/05/12 08:24:25;;;;;;;;;0.00;0.00;;;;;;;;4947089;28;45704;-77
2022/05/12 08:26:51;;;;;;;;;1.00;0.00;;;;;;;;4963024;28;45711;-79
2022/05/12 08:29:16;;;;;;;;;2.00;1.33;;;;;;;;4939416;28;46966;-78
2022/05/12 08:31:41;;;;;;;;;1.00;0.25;;;;;;;;4940589;28;45482;-77
2022/05/12 08:34:07;;;;;;;;;0.00;0.00;;;;;;;;4944910;28;45547;-77
2022/05/12 08:36:32;;;;;;;;;1.67;1.67;;;;;;;;4959420;28;45761;-77
2022/05/12 08:38:57;;;;;;;;;2.00;1.00;;;;;;;;4942774;28;47124;-78
2022/05/12 08:41:41;;;;;;;;;2.00;0.67;;;;;;;;4937752;28;46372;-81
2022/05/12 08:44:16;;;;;;;;;0.00;0.00;;;;;;;;4936601;28;45319;-79
2022/05/12 08:46:41;;;;;;;;;1.00;0.25;;;;;;;;4935301;28;45486;-80
2022/05/12 08:49:25;;;;;;;;;0.50;0.50;;;;;;;;4950958;28;45803;-78
2022/05/12 08:51:54;;;;;;;;;0.33;0.33;;;;;;;;4940509;28;45822;-78
2022/05/12 08:54:22;;;;;;;;;2.00;0.00;;;;;;;;4936694;28;45710;-78
2022/05/12 08:56:51;;;;;;;;;1.00;0.25;;;;;;;;4939667;28;45454;-79
2022/05/12 08:59:17;;;;;;;;;1.00;0.00;;;;;;;;4937466;28;47311;-79
2022/05/12 09:01:58;;;;;;;;;1.67;1.00;;;;;;;;4939849;28;44708;-79
2022/05/12 09:04:23;;;;;;;;;2.67;2.00;;;;;;;;4932643;28;45882;-79
2022/05/12 09:07:17;;;;;;;;;0.33;0.33;;;;;;;;4940889;28;45749;-78
2022/05/12 09:10:01;;;;;;;;;0.33;0.33;;;;;;;;4914499;28;47482;-78
2022/05/12 09:12:45;;;;;;;;;1.00;1.00;;;;;;;;4934548;28;45525;-79
2022/05/12 09:15:13;;;;;;;;;0.00;0.00;;;;;;;;4940428;28;45842;-79
2022/05/12 09:17:44;;;;;;;;;2.00;2.00;;;;;;;;4942038;28;45816;-76
2022/05/12 09:20:10;;;;;;;;;1.67;0.00;;;;;;;;4938090;28;47986;-79
2022/05/12 09:22:37;;;;;;;;;0.00;0.00;;;;;;;;4943106;28;45438;-78
2022/05/12 09:25:03;;;;;;;;;2.00;0.00;;;;;;;;4938718;28;45457;-76
2022/05/12 09:27:32;;;;;;;;;3.67;2.00;;;;;;;;4936387;28;47502;-79
2022/05/12 09:29:57;;;;;;;;;0.33;0.33;;;;;;;;4934118;28;45780;-79
2022/05/12 09:32:25;;;;;;;;;1.25;0.50;;;;;;;;4933198;28;45325;-77
2022/05/12 09:35:17;;;;;;;;;0.33;0.33;;;;;;;;4937801;28;45889;-78
2022/05/12 09:37:45;;;;;;;;;0.25;0.25;;;;;;;;4936998;28;45761;-76
2022/05/12 09:40:32;;;;;;;;;0.00;0.00;;;;;;;;4946281;28;45503;-79
2022/05/12 09:43:00;;;;;;;;;0.00;0.00;;;;;;;;4939474;28;45694;-78
2022/05/12 09:45:39;;;;;;;;;0.00;0.00;;;;;;;;4941127;28;45750;-78
2022/05/12 09:48:17;;;;;;;;;1.00;1.00;;;;;;;;4960319;28;45903;-79
2022/05/12 09:50:42;;;;;;;;;2.00;1.00;;;;;;;;4938487;28;47511;-78
2022/05/12 09:53:09;;;;;;;;;0.67;0.67;;;;;;;;4961575;28;45673;-79
2022/05/12 09:55:39;;;;;;;;;1.00;1.00;;;;;;;;4941287;28;45818;-79
2022/05/12 09:58:06;;;;;;;;;1.00;1.00;;;;;;;;4942815;28;47006;-77
2022/05/12 10:00:34;;;;;;;;;0.25;0.25;;;;;;;;4963316;28;45537;-78
2022/05/12 10:09:00;;;;;;;;;0.25;0.25;;;;;;;;4962562;28;45766;-82
2022/05/12 10:11:27;;;;;;;;;0.00;0.00;;;;;;;;4958554;28;46818;-80
2022/05/12 10:13:54;;;;;;;;;2.50;0.00;;;;;;;;4942461;28;45480;-83
2022/05/12 10:16:24;;;;;;;;;2.00;1.00;;;;;;;;4940973;28;45269;-79
2022/05/12 10:18:52;;;;;;;;;1.75;0.25;;;;;;;;4941588;28;46028;-79
2022/05/12 10:21:24;;;;;;;;;3.75;0.50;;;;;;;;4941730;28;46824;-79
2022/05/12 10:23:49;;;;;;;;;1.00;1.00;;;;;;;;4949498;28;45677;-80
2022/05/12 10:26:20;;;;;;;;;0.75;0.50;;;;;;;;4960105;28;45628;-79
2022/05/12 10:29:04;;;;;;;;;1.00;1.00;;;;;;;;4972573;28;45456;-81
2022/05/12 10:31:33;;;;;;;;;0.75;0.25;;;;;;;;4950659;28;46495;-81
2022/05/12 10:34:07;;;;;;;;;2.75;1.00;;;;;;;;4947249;28;45636;-82
2022/05/12 10:36:44;;;;;;;;;1.00;1.00;;;;;;;;4946361;28;46147;-81
2022/05/12 10:39:21;;;;;;;;;0.75;0.75;;;;;;;;4954290;28;46203;-84
2022/05/12 10:41:53;;;;;;;;;1.00;1.00;;;;;;;;4943616;28;47682;-78
2022/05/12 10:44:36;;;;;;;;;1.50;1.00;;;;;;;;4956936;28;45567;-79
2022/05/12 10:47:14;;;;;;;;;1.00;1.00;;;;;;;;4953341;28;45444;-79
2022/05/12 10:49:58;;;;;;;;;1.00;0.00;;;;;;;;4962332;28;45442;-80
2022/05/12 10:52:27;;;;;;;;;1.75;0.50;;;;;;;;4941282;28;47447;-81
2022/05/12 10:55:11;;;;;;;;;0.00;0.00;;;;;;;;4944795;28;45590;-84
2022/05/12 10:57:43;;;;;;;;;1.25;1.00;;;;;;;;4944332;28;46028;-87
2022/05/12 11:00:27;;;;;;;;;0.25;0.25;;;;;;;;4963570;28;45579;-81
2022/05/12 11:02:54;;;;;;;;;1.00;0.00;;;;;;;;4955772;28;45685;-83
2022/05/12 11:05:19;;;;;;;;;0.25;0.25;;;;;;;;4968957;28;45581;-81
2022/05/12 11:07:48;;;;;;;;;0.50;0.50;;;;;;;;4949329;28;45612;-83
2022/05/12 11:10:31;;;;;;;;;2.50;1.00;;;;;;;;4963927;28;45946;-85
2022/05/12 11:13:01;;;;;;;;;1.50;0.25;;;;;;;;4964376;28;46690;-87
2022/05/12 11:15:31;;;;;;;;;0.00;0.00;;;;;;;;4960946;28;45277;-84
2022/05/12 11:18:07;;;;;;;;;1.75;0.25;;;;;;;;4944965;28;45367;-84
2022/05/12 11:20:42;;;;;;;;;0.25;0.25;;;;;;;;4960509;28;45518;-84
2022/05/12 11:23:20;;;;;;;;;0.00;0.00;;;;;;;;4944736;28;48162;-84
2022/05/12 11:26:04;;;;;;;;;0.00;0.00;;;;;;;;4950635;28;45909;-85
2022/05/12 11:31:32;;;;;;;;;1.00;1.00;;;;;;;;4966114;28;45369;-85
2022/05/12 11:33:59;;;;;;;;;1.00;1.00;;;;;;;;4951366;28;47582;-84
2022/05/12 11:36:47;;;;;;;;;1.00;1.00;;;;;;;;4968473;28;45877;-85
2022/05/12 11:39:24;;;;;;;;;1.50;1.00;;;;;;;;4946096;28;45926;-83
2022/05/12 11:42:05;;;;;;;;;1.50;0.50;;;;;;;;4935733;28;46805;-84
2022/05/12 11:44:34;;;;;;;;;0.75;0.75;;;;;;;;4945662;28;48172;-82
2022/05/12 11:47:11;;;;;;;;;1.00;0.00;;;;;;;;4939091;28;45938;-84
2022/05/12 11:50:00;;;;;;;;;0.00;0.00;;;;;;;;4946202;28;45752;-84
2022/05/12 11:52:40;;;;;;;;;1.75;1.00;;;;;;;;4924062;28;46011;-84
2022/05/12 11:55:22;;;;;;;;;0.25;0.25;;;;;;;;4941192;28;46951;-84
2022/05/12 11:57:57;;;;;;;;;1.00;1.00;;;;;;;;4941501;28;46851;-82
2022/05/12 12:00:34;;;;;;;;;0.50;0.50;;;;;;;;4942125;28;45431;-81
2022/05/12 12:03:19;;;;;;;;;0.75;0.00;;;;;;;;4938829;28;45752;-82
2022/05/12 12:05:48;;;;;;;;;0.75;0.50;;;;;;;;4942258;28;47337;-80
2022/05/12 12:08:31;;;;;;;;;0.25;0.25;;;;;;;;4940865;28;45372;-78
2022/05/12 12:11:12;;;;;;;;;2.00;0.00;;;;;;;;4949899;28;45641;-81
2022/05/12 12:13:38;;;;;;;;;0.00;0.00;;;;;;;;4944314;28;45797;-80
2022/05/12 12:16:07;;;;;;;;;0.00;0.00;;;;;;;;4944783;28;46665;-79
2022/05/12 12:18:32;;;;;;;;;0.00;0.00;;;;;;;;4943417;28;45432;-81
2022/05/12 12:20:59;;;;;;;;;0.25;0.25;;;;;;;;4942818;28;45547;-82
2022/05/12 12:23:27;;;;;;;;;0.00;0.00;;;;;;;;4940841;28;45590;-80
2022/05/12 12:26:09;;;;;;;;;0.00;0.00;;;;;;;;4949006;28;45511;-79
2022/05/12 12:28:34;;;;;;;;;1.00;1.00;;;;;;;;4949097;28;45732;-78
2022/05/12 12:31:05;;;;;;;;;1.25;1.25;;;;;;;;4945371;28;45535;-80
2022/05/12 12:33:31;;;;;;;;;3.00;1.75;;;;;;;;4942885;28;45772;-79
2022/05/12 12:36:02;;;;;;;;;0.00;0.00;;;;;;;;4942443;28;45545;-78
2022/05/12 12:38:49;;;;;;;;;2.50;0.25;;;;;;;;4933647;28;45818;-76
2022/05/12 12:41:16;;;;;;;;;1.25;0.00;;;;;;;;4943762;28;45554;-79
2022/05/12 12:43:46;;;;;;;;;2.00;2.00;;;;;;;;4943589;28;47734;-77
2022/05/12 12:46:11;;;;;;;;;1.00;1.00;;;;;;;;4938005;28;46678;-77
2022/05/12 12:48:39;;;;;;;;;1.00;1.00;;;;;;;;4941919;28;45898;-80
2022/05/12 12:51:04;;;;;;;;;2.00;1.00;;;;;;;;4944943;28;45579;-80
2022/05/12 12:56:30;;;;;;;;;4.50;1.00;;;;;;;;4954059;28;45701;-79
2022/05/12 12:58:56;;;;;;;;;2.75;1.00;;;;;;;;4948547;28;45801;-77
2022/05/12 13:01:21;;;;;;;;;1.00;1.00;;;;;;;;4944163;28;45521;-81
2022/05/12 13:03:49;;;;;;;;;1.00;1.00;;;;;;;;4943642;28;45695;-80
2022/05/12 13:06:36;;;;;;;;;1.00;1.00;;;;;;;;4943470;28;46401;-77
2022/05/12 13:09:06;;;;;;;;;0.25;0.25;;;;;;;;4936725;28;45636;-81
2022/05/12 13:11:32;;;;;;;;;1.00;1.00;;;;;;;;4934895;28;45600;-78
2022/05/12 13:13:57;;;;;;;;;2.00;1.00;;;;;;;;4941913;28;45547;-76
2022/05/12 13:16:27;;;;;;;;;2.25;1.00;;;;;;;;4939013;28;45956;-79
2022/05/12 13:18:54;;;;;;;;;1.00;1.00;;;;;;;;4937113;28;45422;-77
2022/05/12 13:21:31;;;;;;;;;1.25;1.25;;;;;;;;4944628;28;45546;-78
2022/05/12 13:24:05;;;;;;;;;0.50;0.50;;;;;;;;4939630;28;45429;-79
2022/05/12 13:26:31;;;;;;;;;0.00;0.00;;;;;;;;4948143;28;46619;-77
2022/05/12 13:28:58;;;;;;;;;2.50;1.00;;;;;;;;4937360;28;45884;-79
2022/05/12 13:31:35;;;;;;;;;3.00;1.00;;;;;;;;4944828;28;45876;-81
2022/05/12 13:34:01;;;;;;;;;0.00;0.00;;;;;;;;4939576;28;46000;-78
2022/05/12 13:36:30;;;;;;;;;3.50;2.50;;;;;;;;4942123;28;47088;-81
2022/05/12 13:38:55;;;;;;;;;0.50;0.50;;;;;;;;4938356;28;45484;-82
2022/05/12 13:41:25;;;;;;;;;1.00;1.00;;;;;;;;4939652;28;45565;-80
2022/05/12 13:43:51;;;;;;;;;2.00;0.00;;;;;;;;4933110;28;46084;-81
2022/05/12 13:46:16;;;;;;;;;0.50;0.50;;;;;;;;4931988;28;45804;-77
2022/05/12 13:48:56;;;;;;;;;1.00;1.00;;;;;;;;4945017;28;45985;-79
2022/05/12 13:51:39;;;;;;;;;1.00;1.00;;;;;;;;4949119;28;45551;-76
2022/05/12 13:54:11;;;;;;;;;1.75;1.25;;;;;;;;4954547;28;45952;-79
2022/05/12 13:56:38;;;;;;;;;2.00;2.00;;;;;;;;4939726;28;47497;-79
2022/05/12 13:59:22;;;;;;;;;1.00;1.00;;;;;;;;4945747;28;45867;-79
2022/05/12 14:01:49;;;;;;;;;0.25;0.25;;;;;;;;4942409;28;45539;-79
2022/05/12 14:04:19;;;;;;;;;2.00;0.50;;;;;;;;4940961;28;45498;-80
2022/05/12 14:06:56;;;;;;;;;3.00;1.00;;;;;;;;4950873;28;45459;-81
2022/05/12 14:09:28;;;;;;;;;0.25;0.25;;;;;;;;4934608;28;46063;-81
2022/05/12 14:12:07;;;;;;;;;2.25;1.00;;;;;;;;4939874;28;45802;-80
2022/05/12 14:20:05;;;;;;;;;0.00;0.00;;;;;;;;4939669;28;46715;-78
2022/05/12 14:22:31;;;;;;;;;0.00;0.00;;;;;;;;4943454;28;44839;-80
2022/05/12 14:24:57;;;;;;;;;2.25;1.00;;;;;;;;4933767;28;46376;-79
2022/05/12 14:27:22;;;;;;;;;0.75;0.75;;;;;;;;4929695;28;45728;-79
2022/05/12 14:29:47;;;;;;;;;1.00;1.00;;;;;;;;4930844;28;45661;-76
2022/05/12 14:32:14;;;;;;;;;1.00;1.00;;;;;;;;4937543;28;45551;-81
2022/05/12 14:34:42;;;;;;;;;0.25;0.25;;;;;;;;4939171;28;45499;-79
2022/05/12 14:37:07;;;;;;;;;0.00;0.00;;;;;;;;4935433;28;46935;-79
2022/05/12 14:39:36;;;;;;;;;0.00;0.00;;;;;;;;4939852;28;45592;-80
2022/05/12 14:42:02;;;;;;;;;0.50;0.00;;;;;;;;4963878;28;46662;-80
2022/05/12 14:44:28;;;;;;;;;2.50;0.00;;;;;;;;4960477;28;45920;-79
2022/05/12 14:46:55;;;;;;;;;1.25;0.25;;;;;;;;4959733;28;45888;-79
2022/05/12 14:49:27;;;;;;;;;1.00;1.00;;;;;;;;4952703;28;46035;-78
2022/05/12 14:51:53;;;;;;;;;0.00;0.00;;;;;;;;4939827;28;45282;-79
2022/05/12 14:54:18;;;;;;;;;1.00;1.00;;;;;;;;4940165;28;47109;-83
2022/05/12 14:56:43;;;;;;;;;1.00;1.00;;;;;;;;4939123;28;47067;-78
2022/05/12 14:59:08;;;;;;;;;0.00;0.00;;;;;;;;4946788;28;45675;-80
2022/05/12 15:01:33;;;;;;;;;2.00;1.00;;;;;;;;4942121;28;45946;-83
2022/05/12 15:03:59;;;;;;;;;0.50;0.50;;;;;;;;4961779;28;45915;-82
2022/05/12 15:06:30;;;;;;;;;0.00;0.00;;;;;;;;4962565;28;45501;-79
2022/05/12 15:08:55;;;;;;;;;0.75;0.75;;;;;;;;4941330;28;45978;-78
2022/05/12 15:11:20;;;;;;;;;2.25;0.75;;;;;;;;4957929;28;45469;-79
2022/05/12 15:13:46;;;;;;;;;2.50;1.00;;;;;;;;4939744;28;46944;-78
2022/05/12 15:16:12;;;;;;;;;0.75;0.75;;;;;;;;4959157;28;45473;-80
2022/05/12 15:18:39;;;;;;;;;0.25;0.25;;;;;;;;4958534;28;45617;-79
2022/05/12 15:21:04;;;;;;;;;0.25;0.25;;;;;;;;4960785;28;45604;-83
2022/05/12 15:23:29;;;;;;;;;2.00;0.75;;;;;;;;4958177;28;45492;-83